createdAt,value
2023-03-28T00:01:10.668Z,9.52
2023-03-28T00:03:40.300Z,9.00
2023-03-28T00:06:18.273Z,10.38
2023-03-28T00:08:45.965Z,10.15
2023-03-28T00:11:21.630Z,13.77
2023-03-28T00:13:53.469Z,8.85
2023-03-28T00:16:19.946Z,10.63
2023-03-28T00:18:46.576Z,7.78
2023-03-28T00:21:23.134Z,10.30
2023-03-28T00:23:54.556Z,10.00
2023-03-28T00:28:48.856Z,8.35
2023-03-28T00:31:15.701Z,10.50
2023-03-28T00:33:42.151Z,10.18
2023-03-28T00:36:10.342Z,9.45
2023-03-28T00:38:38.573Z,10.60
2023-03-28T00:41:05.780Z,9.52
2023-03-28T00:43:52.425Z,11.55
2023-03-28T00:46:29.698Z,9.52
2023-03-28T00:49:05.796Z,9.85
2023-03-28T00:51:38.156Z,10.13
2023-03-28T00:54:07.698Z,17.05
2023-03-28T00:56:37.594Z,9.25
2023-03-28T00:59:08.009Z,10.18
2023-03-28T01:01:34.828Z,14.33
2023-03-28T01:04:06.836Z,11.75
2023-03-28T01:06:37.757Z,10.73
2023-03-28T01:09:07.927Z,9.68
2023-03-28T01:11:36.789Z,14.55
2023-03-28T01:14:04.394Z,14.00
2023-03-28T01:16:31.134Z,16.88
2023-03-28T01:19:03.592Z,13.02
2023-03-28T01:21:54.729Z,11.43
2023-03-28T01:25:04.328Z,13.02
2023-03-28T01:27:52.093Z,13.68
2023-03-28T01:30:47.325Z,11.18
2023-03-28T01:34:24.301Z,17.70
2023-03-28T01:37:06.077Z,22.88
2023-03-28T01:40:06.736Z,11.20
2023-03-28T01:43:05.249Z,15.05
2023-03-28T01:45:43.569Z,15.07
2023-03-28T01:48:21.998Z,13.48
2023-03-28T01:51:08.800Z,14.52
2023-03-28T01:53:47.685Z,13.07
2023-03-28T01:56:53.221Z,14.35
2023-03-28T01:59:37.817Z,12.98
2023-03-28T02:02:37.485Z,11.02
2023-03-28T02:05:25.957Z,13.52
2023-03-28T02:07:54.529Z,13.05
2023-03-28T02:10:38.843Z,12.77
2023-03-28T02:13:35.241Z,13.43
2023-03-28T02:16:26.617Z,12.18
2023-03-28T02:19:01.834Z,16.13
2023-03-28T02:22:09.098Z,11.25
2023-03-28T02:24:54.224Z,13.15
2023-03-28T02:27:39.404Z,11.73
2023-03-28T02:30:17.440Z,13.80
2023-03-28T02:32:50.429Z,14.98
2023-03-28T02:35:26.003Z,16.83
2023-03-28T02:38:08.628Z,11.73
2023-03-28T02:41:06.778Z,11.68
2023-03-28T02:43:59.452Z,11.38
2023-03-28T02:46:50.628Z,12.07
2023-03-28T02:49:50.016Z,10.75
2023-03-28T02:52:23.592Z,9.00
2023-03-28T02:54:58.606Z,10.52
2023-03-28T02:57:36.487Z,12.50
2023-03-28T03:00:12.009Z,7.05
2023-03-28T03:02:41.850Z,6.68
2023-03-28T03:05:09.723Z,6.80
2023-03-28T03:07:37.674Z,8.80
2023-03-28T03:10:09.532Z,8.07
2023-03-28T03:12:36.665Z,7.65
2023-03-28T03:15:05.150Z,9.07
2023-03-28T03:17:47.922Z,6.85
2023-03-28T03:20:16.587Z,5.88
2023-03-28T03:22:43.504Z,11.73
2023-03-28T03:25:13.882Z,12.32
2023-03-28T03:27:53.486Z,8.57
2023-03-28T03:30:20.362Z,6.85
2023-03-28T03:33:17.229Z,8.43
2023-03-28T03:35:48.395Z,9.27
2023-03-28T03:38:16.054Z,14.07
2023-03-28T03:40:42.519Z,10.80
2023-03-28T03:43:09.756Z,14.70
2023-03-28T03:45:40.519Z,13.05
2023-03-28T03:48:08.271Z,14.18
2023-03-28T03:50:34.955Z,12.38
2023-03-28T03:53:03.019Z,13.20
2023-03-28T03:55:40.591Z,10.82
2023-03-28T03:58:07.619Z,15.90
2023-03-28T04:00:37.542Z,19.13
2023-03-28T04:03:13.108Z,15.65
2023-03-28T04:05:52.740Z,12.63
2023-03-28T04:08:19.153Z,17.45
2023-03-28T04:10:48.032Z,8.95
2023-03-28T04:13:15.117Z,15.15
2023-03-28T04:15:43.049Z,14.48
2023-03-28T04:18:29.698Z,12.90
2023-03-28T04:21:01.542Z,12.98
2023-03-28T04:23:38.672Z,18.50
2023-03-28T04:26:08.693Z,18.60
2023-03-28T04:28:48.024Z,17.85
2023-03-28T04:31:14.438Z,21.83
2023-03-28T04:34:07.329Z,18.02
2023-03-28T04:36:42.256Z,20.08
2023-03-28T04:39:08.853Z,18.25
2023-03-28T04:41:55.450Z,16.35
2023-03-28T04:44:29.688Z,17.52
2023-03-28T04:47:01.784Z,20.42
2023-03-28T04:49:28.468Z,19.85
2023-03-28T04:51:55.203Z,19.25
2023-03-28T04:54:21.813Z,20.17
2023-03-28T04:56:48.297Z,22.27
2023-03-28T04:59:20.128Z,20.05
2023-03-28T05:01:49.753Z,21.02
2023-03-28T05:04:26.646Z,21.48
2023-03-28T05:06:54.050Z,24.52
2023-03-28T05:09:20.815Z,25.83
2023-03-28T05:11:48.025Z,17.48
2023-03-28T05:14:14.670Z,23.13
2023-03-28T05:16:47.568Z,20.42
2023-03-28T05:19:40.310Z,19.73
2023-03-28T05:22:15.303Z,24.58
2023-03-28T05:24:42.865Z,22.85
2023-03-28T05:27:17.309Z,24.27
2023-03-28T05:29:44.082Z,19.05
2023-03-28T05:32:12.729Z,18.95
2023-03-28T05:34:40.261Z,17.15
2023-03-28T05:37:06.702Z,17.38
2023-03-28T05:39:43.496Z,20.92
2023-03-28T05:42:10.312Z,16.00
2023-03-28T05:44:39.400Z,19.30
2023-03-28T05:47:29.088Z,19.70
2023-03-28T05:49:57.007Z,19.08
2023-03-28T05:52:23.636Z,20.02
2023-03-28T05:54:52.340Z,17.85
2023-03-28T05:57:21.380Z,18.85
2023-03-28T05:59:48.441Z,17.70
2023-03-28T06:02:20.497Z,21.92
2023-03-28T06:04:47.518Z,19.08
2023-03-28T06:07:14.922Z,18.65
2023-03-28T06:09:42.997Z,14.95
2023-03-28T06:12:10.627Z,16.40
2023-03-28T06:14:41.939Z,16.58
2023-03-28T06:17:17.597Z,24.13
2023-03-28T06:19:49.114Z,21.48
2023-03-28T06:22:15.670Z,22.25
2023-03-28T06:24:46.432Z,22.35
2023-03-28T06:27:12.965Z,13.70
2023-03-28T06:29:39.448Z,15.23
2023-03-28T06:32:06.770Z,14.23
2023-03-28T06:34:33.259Z,16.83
2023-03-28T06:37:01.942Z,20.88
2023-03-28T06:39:42.661Z,16.85
2023-03-28T06:42:10.048Z,16.52
2023-03-28T06:44:46.641Z,14.38
2023-03-28T06:47:35.930Z,16.80
2023-03-28T06:50:02.550Z,14.50
2023-03-28T06:52:38.560Z,13.90
2023-03-28T06:55:08.066Z,9.82
2023-03-28T06:57:34.489Z,14.52
2023-03-28T07:00:33.292Z,13.85
2023-03-28T07:03:26.252Z,10.75
2023-03-28T07:05:52.903Z,15.43
2023-03-28T07:08:19.375Z,11.40
2023-03-28T07:10:46.382Z,16.52
2023-03-28T07:13:13.729Z,18.13
2023-03-28T07:16:01.950Z,17.08
2023-03-28T07:18:28.666Z,12.30
2023-03-28T07:21:04.164Z,8.90
2023-03-28T07:23:32.550Z,12.05
2023-03-28T07:25:58.988Z,10.13
2023-03-28T07:28:25.773Z,10.43
2023-03-28T07:30:56.335Z,11.65
2023-03-28T07:33:29.074Z,16.23
2023-03-28T07:36:15.025Z,11.55
2023-03-28T07:41:12.760Z,13.25
2023-03-28T07:43:40.039Z,15.30
2023-03-28T07:46:09.400Z,12.07
2023-03-28T07:48:37.718Z,14.40
2023-03-28T07:51:06.374Z,16.42
2023-03-28T07:53:33.798Z,11.38
2023-03-28T07:56:00.768Z,19.45
2023-03-28T07:58:56.876Z,15.20
2023-03-28T08:01:23.553Z,16.48
2023-03-28T08:03:54.655Z,11.43
2023-03-28T08:06:32.042Z,13.75
2023-03-28T08:09:00.756Z,10.93
2023-03-28T08:11:42.969Z,11.68
2023-03-28T08:14:13.259Z,14.85
2023-03-28T08:16:40.573Z,13.88
2023-03-28T08:19:11.457Z,11.27
2023-03-28T08:21:55.682Z,11.07
2023-03-28T08:24:33.024Z,14.88
2023-03-28T08:27:07.855Z,13.20
2023-03-28T08:29:34.348Z,14.30
2023-03-28T08:32:00.917Z,14.48
2023-03-28T08:34:27.422Z,10.30
2023-03-28T08:36:59.090Z,12.40
2023-03-28T08:39:27.173Z,10.32
2023-03-28T08:42:06.822Z,7.13
2023-03-28T08:44:58.104Z,16.38
2023-03-28T08:47:32.961Z,9.57
2023-03-28T08:50:07.949Z,9.82
2023-03-28T08:52:35.941Z,11.27
2023-03-28T08:55:13.658Z,7.35
2023-03-28T08:57:42.365Z,7.03
2023-03-28T09:00:27.909Z,8.65
2023-03-28T09:02:55.505Z,11.60
2023-03-28T09:05:39.235Z,6.50
2023-03-28T09:08:32.379Z,8.45
2023-03-28T09:11:13.483Z,6.35
2023-03-28T09:14:06.117Z,9.30
2023-03-28T09:17:02.968Z,6.55
2023-03-28T09:19:48.205Z,7.88
2023-03-28T09:23:06.044Z,9.05
2023-03-28T09:26:07.772Z,7.38
2023-03-28T09:29:01.901Z,5.70
2023-03-28T09:31:44.447Z,7.88
2023-03-28T09:34:27.334Z,9.90
2023-03-28T09:37:01.054Z,11.93
2023-03-28T09:39:36.841Z,17.10
2023-03-28T09:42:08.049Z,8.35
2023-03-28T09:45:20.511Z,6.15
2023-03-28T09:47:53.270Z,5.28
2023-03-28T09:50:23.788Z,7.17
2023-03-28T09:52:56.893Z,2.88
2023-03-28T09:55:27.190Z,12.57
2023-03-28T09:58:09.920Z,8.13
2023-03-28T10:01:23.035Z,6.53
2023-03-28T10:04:31.249Z,6.50
2023-03-28T10:07:33.615Z,17.27
2023-03-28T10:10:24.819Z,7.18
2023-03-28T10:13:02.672Z,5.30
2023-03-28T10:15:32.772Z,4.30
2023-03-28T10:18:21.071Z,4.00
2023-03-28T10:21:14.813Z,5.70
2023-03-28T10:23:47.933Z,7.75
2023-03-28T10:26:22.050Z,6.85
2023-03-28T10:28:54.098Z,6.97
2023-03-28T10:31:31.790Z,5.47
2023-03-28T10:34:25.784Z,4.30
2023-03-28T10:36:58.118Z,4.97
2023-03-28T10:39:34.232Z,2.28
2023-03-28T10:42:22.602Z,6.72
2023-03-28T10:45:20.148Z,3.33
2023-03-28T10:47:52.537Z,5.70
2023-03-28T10:50:29.602Z,2.63
2023-03-28T10:53:34.007Z,2.25
2023-03-28T10:56:18.338Z,5.50
2023-03-28T10:59:17.149Z,4.53
2023-03-28T11:02:07.356Z,5.00
2023-03-28T11:05:01.542Z,7.40
2023-03-28T11:07:49.490Z,6.10
2023-03-28T11:10:42.750Z,4.10
2023-03-28T11:13:42.328Z,27.80
2023-03-28T11:16:35.391Z,4.73
2023-03-28T11:19:45.649Z,7.00
2023-03-28T11:22:24.412Z,5.43
2023-03-28T11:25:08.481Z,8.02
2023-03-28T11:28:16.153Z,3.15
2023-03-28T11:30:49.763Z,4.00
2023-03-28T11:34:04.979Z,5.18
2023-03-28T11:36:46.322Z,7.30
2023-03-28T11:39:50.792Z,4.25
2023-03-28T11:42:34.739Z,3.95
2023-03-28T11:45:46.695Z,4.05
2023-03-28T11:48:26.286Z,4.32
2023-03-28T11:51:05.927Z,3.25
2023-03-28T11:54:08.421Z,3.35
2023-03-28T11:57:03.986Z,3.42
2023-03-28T11:59:53.676Z,4.30
2023-03-28T12:02:41.775Z,3.17
2023-03-28T12:05:18.350Z,8.27
2023-03-28T12:08:13.111Z,5.72
2023-03-28T12:10:45.837Z,3.45
2023-03-28T12:16:21.804Z,7.30
2023-03-28T12:18:52.262Z,2.75
2023-03-28T12:21:59.480Z,3.38
2023-03-28T12:24:57.963Z,3.25
2023-03-28T12:28:04.510Z,3.80
2023-03-28T12:30:40.421Z,5.20
2023-03-28T12:33:24.208Z,4.25
2023-03-28T12:36:10.488Z,4.93
2023-03-28T12:38:59.822Z,9.80
2023-03-28T12:41:36.326Z,7.15
2023-03-28T12:44:08.241Z,2.28
2023-03-28T12:47:01.716Z,3.33
2023-03-28T12:49:37.024Z,2.25
2023-03-28T12:52:14.469Z,4.93
2023-03-28T12:55:07.267Z,6.22
2023-03-28T12:57:46.297Z,8.30
2023-03-28T13:00:48.771Z,3.50
2023-03-28T13:03:58.084Z,4.18
2023-03-28T13:07:14.728Z,5.30
2023-03-28T13:10:24.100Z,3.25
2023-03-28T13:13:06.384Z,3.65
2023-03-28T13:15:33.584Z,3.83
2023-03-28T13:18:22.232Z,3.70
2023-03-28T13:20:51.862Z,6.07
2023-03-28T13:23:25.218Z,7.05
2023-03-28T13:25:56.596Z,4.22
2023-03-28T13:28:32.330Z,5.38
2023-03-28T13:31:07.786Z,3.63
2023-03-28T13:33:38.178Z,3.90
2023-03-28T13:36:04.763Z,3.63
2023-03-28T13:38:33.530Z,2.25
2023-03-28T13:41:06.200Z,6.43
2023-03-28T13:43:39.496Z,4.18
2023-03-28T13:46:18.713Z,3.05
2023-03-28T13:49:09.631Z,7.57
2023-03-28T13:51:42.281Z,4.15
2023-03-28T13:54:10.862Z,3.45
2023-03-28T13:56:44.390Z,5.22
2023-03-28T13:59:26.770Z,3.28
2023-03-28T14:01:54.866Z,6.03
2023-03-28T14:04:49.510Z,4.13
2023-03-28T14:07:16.244Z,3.33
2023-03-28T14:09:42.732Z,3.65
2023-03-28T14:12:14.380Z,4.85
2023-03-28T14:14:51.414Z,4.25
2023-03-28T14:17:25.096Z,7.03
2023-03-28T14:20:17.344Z,3.63
2023-03-28T14:22:59.626Z,7.43
2023-03-28T14:25:28.588Z,2.35
2023-03-28T14:27:56.918Z,3.08
2023-03-28T14:30:38.835Z,3.42
2023-03-28T14:33:20.274Z,6.55
2023-03-28T14:36:02.752Z,2.88
2023-03-28T14:38:33.594Z,5.47
2023-03-28T14:41:13.116Z,3.85
2023-03-28T14:43:39.767Z,7.40
2023-03-28T14:46:09.198Z,3.05
2023-03-28T14:48:38.128Z,6.40
2023-03-28T14:51:05.888Z,5.05
2023-03-28T14:53:40.200Z,5.35
2023-03-28T14:56:14.021Z,3.45
2023-03-28T14:58:43.364Z,3.60
2023-03-28T15:01:15.781Z,6.65
2023-03-28T15:03:46.370Z,3.08
2023-03-28T15:06:18.542Z,4.78
2023-03-28T15:08:45.528Z,4.85
2023-03-28T15:11:32.377Z,3.83
2023-03-28T15:14:12.723Z,3.85
2023-03-28T15:16:42.602Z,3.30
2023-03-28T15:19:19.418Z,5.65
2023-03-28T15:21:54.297Z,4.65
2023-03-28T15:24:21.144Z,7.57
2023-03-28T15:26:51.294Z,6.35
2023-03-28T15:29:20.611Z,4.53
2023-03-28T15:31:48.121Z,6.28
2023-03-28T15:34:24.189Z,4.75
2023-03-28T15:37:02.548Z,7.50
2023-03-28T15:39:34.736Z,8.23
2023-03-28T15:42:19.549Z,4.30
2023-03-28T15:45:21.235Z,6.88
2023-03-28T15:47:49.945Z,4.95
2023-03-28T15:50:29.283Z,6.18
2023-03-28T15:52:57.980Z,6.18
2023-03-28T15:55:26.987Z,4.93
2023-03-28T15:57:55.197Z,8.48
2023-03-28T16:00:52.607Z,6.80
2023-03-28T16:03:24.808Z,5.15
2023-03-28T16:06:01.837Z,5.13
2023-03-28T16:08:40.137Z,6.07
2023-03-28T16:11:14.633Z,3.78
2023-03-28T16:14:01.044Z,6.55
2023-03-28T16:16:46.457Z,5.72
2023-03-28T16:19:22.784Z,6.25
2023-03-28T16:21:50.457Z,6.07
2023-03-28T16:24:17.586Z,4.53
2023-03-28T16:26:44.339Z,6.93
2023-03-28T16:29:11.352Z,5.43
2023-03-28T16:31:38.063Z,5.22
2023-03-28T16:34:07.078Z,3.35
2023-03-28T16:36:35.033Z,7.38
2023-03-28T16:39:01.656Z,6.57
2023-03-28T16:41:28.209Z,6.63
2023-03-28T16:43:54.617Z,4.88
2023-03-28T16:46:21.345Z,3.97
2023-03-28T16:48:47.861Z,3.35
2023-03-28T16:51:14.300Z,6.45
2023-03-28T16:53:41.097Z,4.00
2023-03-28T16:56:11.839Z,3.97
2023-03-28T16:58:39.332Z,5.68
2023-03-28T17:01:09.384Z,6.50
2023-03-28T17:03:36.628Z,4.22
2023-03-28T17:06:06.126Z,2.78
2023-03-28T17:08:32.521Z,5.30
2023-03-28T17:11:00.060Z,4.05
2023-03-28T17:13:27.370Z,5.25
2023-03-28T17:15:55.048Z,5.22
2023-03-28T17:18:21.549Z,3.05
2023-03-28T17:20:58.701Z,4.97
2023-03-28T17:23:25.575Z,4.00
2023-03-28T17:25:54.641Z,4.63
2023-03-28T17:28:21.773Z,13.18
2023-03-28T17:30:48.417Z,6.45
2023-03-28T17:33:15.192Z,4.57
2023-03-28T17:35:41.688Z,7.30
2023-03-28T17:38:08.847Z,7.90
2023-03-28T17:40:36.371Z,8.75
2023-03-28T17:43:03.985Z,7.28
2023-03-28T17:45:30.809Z,5.47
2023-03-28T17:47:57.428Z,5.63
2023-03-28T17:50:25.150Z,5.72
2023-03-28T17:52:51.742Z,6.45
2023-03-28T17:55:18.286Z,9.55
2023-03-28T17:57:44.761Z,9.48
2023-03-28T18:00:11.677Z,5.40
2023-03-28T18:02:45.913Z,7.68
2023-03-28T18:05:28.557Z,6.88
2023-03-28T18:07:57.587Z,4.78
2023-03-28T18:10:24.472Z,6.45
2023-03-28T18:12:51.436Z,6.25
2023-03-28T18:15:18.054Z,6.07
2023-03-28T18:17:45.115Z,4.72
2023-03-28T18:20:12.751Z,4.88
2023-03-28T18:22:39.385Z,5.82
2023-03-28T18:25:06.513Z,4.10
2023-03-28T18:27:33.060Z,7.57
2023-03-28T18:30:04.745Z,6.13
2023-03-28T18:32:31.937Z,5.68
2023-03-28T18:34:58.369Z,6.97
2023-03-28T18:37:24.841Z,9.05
2023-03-28T18:39:51.229Z,6.47
2023-03-28T18:42:17.672Z,4.22
2023-03-28T18:44:44.056Z,5.93
2023-03-28T18:47:10.657Z,6.68
2023-03-28T18:49:37.088Z,8.77
2023-03-28T18:52:06.787Z,6.93
2023-03-28T18:54:34.656Z,10.45
2023-03-28T18:57:01.565Z,5.93
2023-03-28T18:59:28.039Z,3.85
2023-03-28T19:01:54.673Z,7.63
2023-03-28T19:04:23.476Z,8.10
2023-03-28T19:06:51.775Z,5.32
2023-03-28T19:09:18.211Z,6.28
2023-03-28T19:11:45.448Z,7.97
2023-03-28T19:14:11.816Z,4.65
2023-03-28T19:16:38.291Z,5.88
2023-03-28T19:19:04.818Z,7.47
2023-03-28T19:21:31.346Z,9.30
2023-03-28T19:23:57.757Z,6.57
2023-03-28T19:26:24.353Z,5.72
2023-03-28T19:28:53.507Z,6.13
2023-03-28T19:31:21.832Z,5.80
2023-03-28T19:33:48.703Z,6.20
2023-03-28T19:36:15.382Z,5.70
2023-03-28T19:38:42.011Z,7.35
2023-03-28T19:41:19.934Z,6.72
2023-03-28T19:43:47.873Z,4.25
2023-03-28T19:46:26.868Z,5.05
2023-03-28T19:49:01.179Z,6.43
2023-03-28T19:51:28.374Z,6.32
2023-03-28T19:53:55.552Z,4.55
2023-03-28T19:56:23.438Z,5.03
2023-03-28T19:58:51.865Z,9.38
2023-03-28T20:01:18.632Z,6.93
2023-03-28T20:03:46.847Z,6.65
2023-03-28T20:06:13.823Z,7.00
2023-03-28T20:08:40.871Z,8.30
2023-03-28T20:11:08.709Z,5.85
2023-03-28T20:13:36.032Z,10.38
2023-03-28T20:16:04.464Z,8.90
2023-03-28T20:18:32.423Z,10.82
2023-03-28T20:21:01.485Z,10.68
2023-03-28T20:23:29.954Z,6.97
2023-03-28T20:25:58.645Z,6.88
2023-03-28T20:28:25.627Z,8.45
2023-03-28T20:30:53.332Z,8.27
2023-03-28T20:33:20.586Z,8.40
2023-03-28T20:35:58.270Z,7.30
2023-03-28T20:38:27.827Z,9.95
2023-03-28T20:40:54.244Z,6.82
2023-03-28T20:43:20.987Z,6.75
2023-03-28T20:45:55.284Z,7.13
2023-03-28T20:48:34.978Z,9.98
2023-03-28T20:51:05.841Z,9.23
2023-03-28T20:53:33.140Z,11.85
2023-03-28T20:56:04.750Z,11.68
2023-03-28T20:58:32.591Z,8.75
2023-03-28T21:01:01.254Z,7.30
2023-03-28T21:03:48.159Z,6.05
2023-03-28T21:06:16.617Z,7.80
2023-03-28T21:08:45.849Z,7.30
2023-03-28T21:11:16.957Z,7.25
2023-03-28T21:13:43.889Z,9.82
2023-03-28T21:16:12.145Z,8.43
2023-03-28T21:18:38.632Z,9.88
2023-03-28T21:21:07.222Z,7.30
2023-03-28T21:23:38.901Z,7.57
2023-03-28T21:26:07.128Z,8.85
2023-03-28T21:28:34.605Z,9.30
2023-03-28T21:31:10.230Z,10.38
2023-03-28T21:33:38.254Z,10.98
2023-03-28T21:36:07.268Z,11.07
2023-03-28T21:38:34.804Z,7.65
2023-03-28T21:41:01.602Z,8.27
2023-03-28T21:43:28.229Z,9.85
2023-03-28T21:45:54.683Z,9.73
2023-03-28T21:48:21.138Z,6.32
2023-03-28T21:50:50.042Z,8.02
2023-03-28T21:53:16.463Z,8.60
2023-03-28T21:55:42.861Z,7.00
2023-03-28T21:58:09.240Z,7.00
2023-03-28T22:00:35.709Z,8.93
2023-03-28T22:03:02.142Z,6.10
2023-03-28T22:05:29.675Z,9.93
2023-03-28T22:07:57.779Z,8.38
2023-03-28T22:10:29.331Z,6.57
2023-03-28T22:12:58.733Z,7.65
2023-03-28T22:15:26.165Z,7.72
2023-03-28T22:17:58.104Z,6.18
2023-03-28T22:20:27.392Z,3.70
2023-03-28T22:22:54.305Z,5.68
2023-03-28T22:25:22.531Z,4.82
2023-03-28T22:27:49.016Z,4.25
2023-03-28T22:30:15.419Z,4.50
2023-03-28T22:32:41.892Z,3.58
2023-03-28T22:35:08.631Z,3.80
2023-03-28T22:37:35.059Z,4.35
2023-03-28T22:40:01.757Z,4.47
2023-03-28T22:42:28.700Z,3.33
2023-03-28T22:44:55.092Z,7.20
2023-03-28T22:47:21.539Z,5.15
2023-03-28T22:49:47.941Z,5.05
2023-03-28T22:52:14.315Z,8.82
2023-03-28T22:54:42.593Z,5.43
2023-03-28T22:57:09.301Z,5.60
2023-03-28T22:59:36.348Z,14.68
2023-03-28T23:02:03.513Z,9.90
2023-03-28T23:04:30.061Z,8.10
2023-03-28T23:06:58.483Z,7.32
2023-03-28T23:09:27.282Z,8.25
2023-03-28T23:11:55.055Z,5.22
2023-03-28T23:14:22.096Z,5.20
2023-03-28T23:16:48.745Z,4.20
2023-03-28T23:19:16.255Z,4.63
2023-03-28T23:21:42.936Z,3.20
2023-03-28T23:24:09.660Z,3.17
2023-03-28T23:26:36.050Z,2.83
2023-03-28T23:29:02.730Z,8.65
2023-03-28T23:31:29.199Z,3.33
2023-03-28T23:33:55.875Z,3.17
2023-03-28T23:36:22.305Z,4.45
2023-03-28T23:38:48.749Z,3.28
2023-03-28T23:41:15.435Z,4.03
2023-03-28T23:43:41.877Z,4.47
2023-03-28T23:46:08.945Z,3.70
2023-03-28T23:48:36.179Z,14.50
2023-03-28T23:51:03.068Z,5.55
2023-03-28T23:53:30.394Z,3.78
2023-03-28T23:55:56.798Z,5.07
2023-03-28T23:58:23.184Z,4.90
